createdAt,value
2019-03-02T00:03:56.229Z,6.09
2019-03-02T00:06:43.943Z,6.19
2019-03-02T00:09:31.844Z,6.08
2019-03-02T00:12:01.714Z,6.08
2019-03-02T00:14:30.105Z,6.24
2019-03-02T00:20:30.432Z,6.24
2019-03-02T00:23:18.851Z,6.00
2019-03-02T00:25:48.206Z,6.00
2019-03-02T00:28:36.397Z,6.19
2019-03-02T00:31:05.981Z,6.40
2019-03-02T00:33:34.396Z,6.35
2019-03-02T00:36:02.796Z,6.22
2019-03-02T00:38:31.201Z,6.27
2019-03-02T00:40:59.595Z,6.36
2019-03-02T00:43:28.105Z,6.27
2019-03-02T00:49:03.066Z,6.46
2019-03-02T00:51:50.581Z,6.55
2019-03-02T00:54:38.098Z,6.35
2019-03-02T00:57:06.489Z,6.00
2019-03-02T01:04:42.580Z,5.74
2019-03-02T01:09:58.422Z,5.83
2019-03-02T01:12:46.067Z,5.91
2019-03-02T01:15:54.379Z,6.04
2019-03-02T01:18:22.787Z,6.08
2019-03-02T01:23:38.633Z,5.62
2019-03-02T01:26:07.024Z,5.61
2019-03-02T01:28:54.670Z,5.63
2019-03-02T01:31:23.091Z,5.75
2019-03-02T01:33:51.510Z,5.77
2019-03-02T01:36:19.906Z,5.88
2019-03-02T01:38:50.706Z,6.01
2019-03-02T01:41:19.087Z,6.17
2019-03-02T01:43:48.569Z,6.08
2019-03-02T01:46:37.537Z,5.98
2019-03-02T01:49:06.331Z,6.10
2019-03-02T01:51:54.704Z,6.21
2019-03-02T01:54:24.104Z,6.35
2019-03-02T01:57:13.775Z,6.21
2019-03-02T02:00:00.984Z,6.29
2019-03-02T02:02:48.500Z,6.31
2019-03-02T02:08:32.367Z,6.28
2019-03-02T02:11:00.772Z,6.33
2019-03-02T02:16:16.621Z,6.23
2019-03-02T02:18:45.015Z,6.12
2019-03-02T02:21:32.536Z,6.27
2019-03-02T02:24:00.943Z,6.39
2019-03-02T02:26:48.459Z,6.58
2019-03-02T02:29:16.865Z,6.39
2019-03-02T02:31:46.454Z,6.58
2019-03-02T02:34:21.443Z,6.59
2019-03-02T02:36:45.839Z,6.67
2019-03-02T02:39:54.155Z,6.60
2019-03-02T02:45:53.663Z,6.62
2019-03-02T02:48:39.646Z,6.37
2019-03-02T02:51:27.123Z,6.54
2019-03-02T02:53:55.529Z,6.52
2019-03-02T02:56:43.043Z,6.42
2019-03-02T02:59:11.439Z,6.48
2019-03-02T03:01:59.095Z,6.37
2019-03-02T03:04:27.484Z,6.49
2019-03-02T03:07:15.012Z,6.47
2019-03-02T03:12:38.003Z,6.17
2019-03-02T03:15:46.316Z,6.21
2019-03-02T03:18:33.828Z,6.28
2019-03-02T03:21:02.257Z,6.07
2019-03-02T03:23:30.659Z,6.00
2019-03-02T03:26:18.176Z,6.10
2019-03-02T03:28:46.576Z,6.16
2019-03-02T03:31:23.198Z,6.19
2019-03-02T03:33:47.303Z,6.23
2019-03-02T03:36:15.223Z,6.10
2019-03-02T03:38:43.617Z,6.14
2019-03-02T03:41:51.939Z,6.08
2019-03-02T03:44:25.647Z,6.26
2019-03-02T03:46:50.447Z,6.27
2019-03-02T03:49:18.845Z,6.15
2019-03-02T03:51:47.249Z,6.11
2019-03-02T03:54:34.888Z,6.06
2019-03-02T03:59:58.680Z,6.03
2019-03-02T04:05:07.115Z,6.11
2019-03-02T04:07:51.744Z,6.12
2019-03-02T04:10:26.014Z,6.05
2019-03-02T04:12:51.599Z,5.94
2019-03-02T04:15:59.929Z,5.96
2019-03-02T04:19:06.909Z,5.90
2019-03-02T04:22:15.464Z,6.00
2019-03-02T04:24:43.866Z,5.87
2019-03-02T04:27:15.498Z,5.99
2019-03-02T04:38:00.717Z,5.93
2019-03-02T04:40:29.109Z,6.03
2019-03-02T04:42:58.188Z,5.96
2019-03-02T04:45:26.583Z,5.77
2019-03-02T04:48:14.322Z,6.09
2019-03-02T04:50:42.740Z,6.01
2019-03-02T04:53:11.126Z,6.31
2019-03-02T04:58:46.962Z,6.12
2019-03-02T05:01:16.217Z,5.98
2019-03-02T05:03:44.593Z,6.05
2019-03-02T05:09:48.598Z,6.00
2019-03-02T05:12:36.687Z,6.02
2019-03-02T05:15:44.986Z,6.02
2019-03-02T05:18:14.816Z,5.52
2019-03-02T05:20:43.505Z,5.78
2019-03-02T05:23:31.532Z,5.72
2019-03-02T05:26:20.396Z,5.85
2019-03-02T05:29:07.909Z,6.08
2019-03-02T05:31:55.554Z,6.32
2019-03-02T05:34:23.946Z,6.37
2019-03-02T05:42:00.404Z,6.44
2019-03-02T05:44:28.789Z,6.65
2019-03-02T05:46:57.785Z,6.26
2019-03-02T05:49:27.297Z,6.34
2019-03-02T05:51:55.699Z,6.35
2019-03-02T05:54:24.440Z,6.37
2019-03-02T05:56:52.842Z,6.22
2019-03-02T05:59:22.786Z,6.27
2019-03-02T06:01:51.358Z,6.38
2019-03-02T06:04:22.061Z,6.02
2019-03-02T06:07:09.119Z,6.08
2019-03-02T06:09:37.516Z,6.16
2019-03-02T06:12:05.918Z,6.09
2019-03-02T06:14:53.430Z,6.01
2019-03-02T06:17:21.835Z,5.77
2019-03-02T06:20:09.480Z,5.98
2019-03-02T06:23:17.792Z,5.50
2019-03-02T06:31:07.414Z,5.71
2019-03-02T06:34:16.726Z,5.69
2019-03-02T06:36:46.026Z,5.65
2019-03-02T06:39:15.979Z,5.36
2019-03-02T06:42:06.156Z,5.55
2019-03-02T06:47:26.296Z,5.68
2019-03-02T06:49:59.096Z,5.63
2019-03-02T06:52:26.130Z,5.78
2019-03-02T06:55:14.195Z,5.82
2019-03-02T06:57:46.154Z,6.01
2019-03-02T07:00:32.055Z,6.11
2019-03-02T07:03:19.796Z,6.02
2019-03-02T07:08:36.376Z,6.08
2019-03-02T07:11:05.744Z,6.30
2019-03-02T07:13:34.151Z,6.33
2019-03-02T07:16:21.920Z,6.21
2019-03-02T07:19:09.433Z,6.14
2019-03-02T07:21:57.663Z,6.01
2019-03-02T07:24:29.498Z,6.19
2019-03-02T07:27:16.316Z,6.11
2019-03-02T07:29:44.719Z,6.25
2019-03-02T07:32:32.367Z,6.16
2019-03-02T07:35:00.775Z,6.24
2019-03-02T07:37:48.286Z,6.35
2019-03-02T07:40:56.610Z,6.20
2019-03-02T07:43:46.385Z,6.32
2019-03-02T07:46:14.243Z,6.44
2019-03-02T07:49:01.760Z,6.43
2019-03-02T07:54:17.613Z,6.78
2019-03-02T07:56:46.006Z,6.99
2019-03-02T07:59:14.438Z,6.83
2019-03-02T08:02:02.216Z,6.86
2019-03-02T08:04:30.623Z,7.04
2019-03-02T08:07:18.165Z,6.84
2019-03-02T08:09:46.598Z,6.86
2019-03-02T08:12:34.132Z,6.95
2019-03-02T08:15:24.250Z,7.14
2019-03-02T08:18:11.048Z,7.45
2019-03-02T08:20:39.499Z,7.31
2019-03-02T08:31:35.251Z,7.49
2019-03-02T08:34:05.994Z,7.31
2019-03-02T08:39:21.252Z,7.58
2019-03-02T08:41:49.675Z,7.67
2019-03-02T08:47:11.383Z,7.82
2019-03-02T08:49:59.064Z,7.71
2019-03-02T08:52:46.733Z,7.52
2019-03-02T08:55:35.077Z,7.49
2019-03-02T08:58:04.662Z,7.60
2019-03-02T09:01:15.358Z,7.80
2019-03-02T09:04:03.255Z,7.89
2019-03-02T09:06:34.795Z,7.56
2019-03-02T09:11:44.507Z,7.92
2019-03-02T09:14:31.162Z,7.93
2019-03-02T09:16:59.580Z,8.03
2019-03-02T09:19:28.012Z,7.88
2019-03-02T09:21:56.427Z,7.92
2019-03-02T09:26:58.834Z,8.16
2019-03-02T09:29:46.361Z,8.31
2019-03-02T09:32:34.044Z,8.02
2019-03-02T09:35:02.486Z,8.21
2019-03-02T09:37:30.953Z,8.26
2019-03-02T09:39:59.367Z,8.00
2019-03-02T09:42:47.016Z,7.91
2019-03-02T09:45:55.338Z,7.65
2019-03-02T09:48:43.045Z,7.67
2019-03-02T09:51:11.515Z,7.64
2019-03-02T09:53:39.950Z,7.68
2019-03-02T09:56:08.459Z,7.51
2019-03-02T09:58:36.967Z,7.53
2019-03-02T10:01:24.727Z,7.64
2019-03-02T10:03:53.117Z,7.41
2019-03-02T10:06:21.759Z,7.57
2019-03-02T10:08:51.763Z,7.65
2019-03-02T10:11:20.276Z,7.49
2019-03-02T10:13:48.668Z,7.52
2019-03-02T10:16:36.189Z,7.63
2019-03-02T10:19:25.055Z,7.85
2019-03-02T10:22:13.204Z,7.98
2019-03-02T10:25:00.743Z,8.06
2019-03-02T10:27:29.135Z,8.22
2019-03-02T10:30:16.782Z,8.42
2019-03-02T10:33:04.465Z,8.44
2019-03-02T10:35:32.865Z,9.00
2019-03-02T10:41:08.043Z,9.89
2019-03-02T10:43:55.702Z,9.99
2019-03-02T10:46:24.108Z,10.21
2019-03-02T10:54:14.059Z,10.23
2019-03-02T10:57:01.804Z,9.93
2019-03-02T10:59:51.769Z,10.38
2019-03-02T11:02:38.816Z,10.38
2019-03-02T11:05:47.148Z,9.66
2019-03-02T11:08:34.667Z,9.50
2019-03-02T11:11:25.670Z,9.25
2019-03-02T11:17:22.902Z,9.56
2019-03-02T11:20:08.739Z,9.09
2019-03-02T11:23:19.737Z,8.98
2019-03-02T11:26:06.305Z,9.43
2019-03-02T11:28:54.081Z,9.67
2019-03-02T11:34:18.288Z,10.09
2019-03-02T11:37:06.271Z,10.37
2019-03-02T11:39:54.223Z,10.47
2019-03-02T11:42:41.793Z,10.88
2019-03-02T11:45:48.564Z,10.82
2019-03-02T11:48:36.084Z,11.09
2019-03-02T11:54:18.804Z,10.68
2019-03-02T11:57:07.987Z,10.95
2019-03-02T11:59:55.570Z,10.88
2019-03-02T12:03:02.781Z,10.48
2019-03-02T12:05:51.331Z,10.69
2019-03-02T12:08:38.852Z,10.68
2019-03-02T12:11:26.366Z,10.93
2019-03-02T12:14:13.946Z,11.35
2019-03-02T12:17:20.720Z,11.59
2019-03-02T12:23:18.104Z,11.53
2019-03-02T12:26:07.879Z,11.39
2019-03-02T12:28:54.867Z,11.13
2019-03-02T12:32:03.992Z,11.22
2019-03-02T12:34:50.924Z,11.29
2019-03-02T12:37:38.450Z,10.91
2019-03-02T12:40:46.745Z,11.00
2019-03-02T12:46:16.759Z,10.99
2019-03-02T12:54:53.213Z,11.26
2019-03-02T12:57:41.480Z,11.22
2019-03-02T13:00:50.781Z,11.34
2019-03-02T13:03:57.568Z,11.32
2019-03-02T13:06:46.276Z,11.15
2019-03-02T13:09:36.847Z,11.04
2019-03-02T13:15:12.649Z,11.07
2019-03-02T13:18:00.422Z,11.35
2019-03-02T13:20:47.932Z,11.52
2019-03-02T13:26:14.842Z,11.43
2019-03-02T13:29:02.428Z,11.52
2019-03-02T13:32:09.197Z,11.51
2019-03-02T13:35:15.976Z,11.24
2019-03-02T13:38:03.507Z,11.20
2019-03-02T13:40:51.032Z,11.05
2019-03-02T13:46:52.466Z,11.05
2019-03-02T13:52:34.767Z,10.75
2019-03-02T14:01:11.496Z,11.31
2019-03-02T14:09:29.393Z,10.74
2019-03-02T14:12:19.752Z,10.45
2019-03-02T14:17:41.876Z,10.85
2019-03-02T14:25:44.183Z,10.74
2019-03-02T14:28:34.778Z,10.58
2019-03-02T14:31:20.953Z,10.70
2019-03-02T14:36:57.553Z,10.72
2019-03-02T14:39:45.079Z,10.75
2019-03-02T14:42:51.845Z,10.72
2019-03-02T14:45:39.370Z,10.59
2019-03-02T14:48:27.114Z,10.57
2019-03-02T14:51:16.957Z,10.46
2019-03-02T14:56:53.385Z,10.25
2019-03-02T15:00:00.245Z,10.29
2019-03-02T15:02:49.066Z,10.42
2019-03-02T15:05:37.007Z,10.37
2019-03-02T15:08:24.523Z,10.14
2019-03-02T15:11:13.540Z,10.20
2019-03-02T15:14:02.517Z,10.47
2019-03-02T15:17:12.236Z,10.34
2019-03-02T15:19:59.015Z,10.24
2019-03-02T15:22:46.531Z,10.20
2019-03-02T15:25:34.053Z,9.92
2019-03-02T15:28:28.940Z,10.06
2019-03-02T15:31:30.070Z,9.92
2019-03-02T15:34:17.589Z,9.85
2019-03-02T15:37:05.118Z,10.01
2019-03-02T15:39:53.496Z,9.95
2019-03-02T15:42:42.589Z,9.80
2019-03-02T15:45:31.141Z,9.94
2019-03-02T15:48:18.657Z,9.87
2019-03-02T15:56:39.621Z,10.21
2019-03-02T15:59:27.136Z,10.04
2019-03-02T16:07:48.367Z,10.10
2019-03-02T16:10:35.884Z,9.92
2019-03-02T16:13:24.483Z,10.12
2019-03-02T16:24:06.784Z,9.94
2019-03-02T16:26:54.390Z,10.01
2019-03-02T16:32:30.936Z,10.17
2019-03-02T16:35:21.040Z,10.10
2019-03-02T16:38:07.707Z,10.00
2019-03-02T16:40:58.188Z,9.99
2019-03-02T16:43:44.469Z,9.69
2019-03-02T16:49:27.001Z,9.74
2019-03-02T16:55:29.733Z,9.94
2019-03-02T16:58:36.765Z,10.03
2019-03-02T17:01:45.083Z,9.93
2019-03-02T17:04:32.602Z,9.88
2019-03-02T17:13:32.149Z,9.67
2019-03-02T17:19:28.562Z,9.56
2019-03-02T17:25:26.860Z,9.60
2019-03-02T17:28:14.745Z,9.50
2019-03-02T17:31:03.813Z,9.46
2019-03-02T17:36:26.669Z,9.32
2019-03-02T17:39:14.197Z,9.42
2019-03-02T17:42:01.708Z,9.27
2019-03-02T17:52:54.544Z,9.33
2019-03-02T17:58:50.172Z,9.16
2019-03-02T18:01:37.686Z,9.03
2019-03-02T18:04:25.470Z,8.81
2019-03-02T18:12:41.493Z,8.97
2019-03-02T18:15:49.823Z,8.90
2019-03-02T18:18:18.223Z,8.73
2019-03-02T18:21:05.881Z,8.78
2019-03-02T18:23:34.296Z,8.79
2019-03-02T18:26:02.713Z,8.57
2019-03-02T18:28:31.124Z,8.56
2019-03-02T18:31:20.233Z,8.60
2019-03-02T18:36:49.967Z,8.69
2019-03-02T18:41:54.039Z,8.58
2019-03-02T18:44:22.601Z,8.55
2019-03-02T18:47:11.184Z,8.49
2019-03-02T18:49:58.708Z,8.44
2019-03-02T18:55:16.209Z,8.31
2019-03-02T18:58:03.855Z,8.40
2019-03-02T19:03:27.283Z,8.41
2019-03-02T19:05:55.697Z,8.22
2019-03-02T19:08:43.434Z,8.30
2019-03-02T19:11:11.863Z,8.24
2019-03-02T19:13:40.683Z,8.29
2019-03-02T19:16:10.414Z,8.34
2019-03-02T19:18:58.057Z,8.23
2019-03-02T19:21:26.476Z,8.43
2019-03-02T19:24:14.133Z,8.44
2019-03-02T19:27:01.652Z,8.42
2019-03-02T19:29:49.305Z,8.52
2019-03-02T19:35:45.070Z,8.49
2019-03-02T19:38:13.470Z,8.52
2019-03-02T19:40:41.882Z,8.48
2019-03-02T19:46:17.075Z,8.56
2019-03-02T19:51:32.930Z,8.53
2019-03-02T19:57:27.235Z,8.62
2019-03-02T20:00:14.771Z,8.76
2019-03-02T20:03:02.418Z,8.72
2019-03-02T20:05:30.834Z,8.68
2019-03-02T20:07:59.246Z,8.62
2019-03-02T20:10:46.974Z,8.66
2019-03-02T20:13:15.407Z,8.77
2019-03-02T20:16:03.268Z,8.88
2019-03-02T20:18:31.657Z,9.03
2019-03-02T20:21:00.067Z,9.07
2019-03-02T20:23:47.588Z,9.15
2019-03-02T20:28:49.685Z,9.22
2019-03-02T20:31:18.385Z,9.13
2019-03-02T20:34:06.033Z,9.09
2019-03-02T20:36:34.441Z,8.99
2019-03-02T20:41:51.928Z,9.13
2019-03-02T20:44:39.476Z,9.21
2019-03-02T20:47:26.993Z,9.10
2019-03-02T20:53:02.091Z,8.79
2019-03-02T20:55:30.520Z,8.80
2019-03-02T20:57:58.944Z,8.81
2019-03-02T21:01:07.276Z,8.83
2019-03-02T21:03:54.793Z,8.99
2019-03-02T21:09:37.682Z,9.02
2019-03-02T21:14:59.581Z,8.99
2019-03-02T21:17:29.442Z,9.15
2019-03-02T21:19:58.118Z,9.19
2019-03-02T21:22:26.529Z,9.13
2019-03-02T21:25:14.185Z,9.02
2019-03-02T21:27:42.621Z,9.03
2019-03-02T21:33:32.468Z,8.71
2019-03-02T21:38:48.312Z,9.03
2019-03-02T21:41:36.033Z,9.05
2019-03-02T21:46:51.877Z,8.92
2019-03-02T21:49:39.390Z,8.82
2019-03-02T21:52:27.040Z,8.80
2019-03-02T21:55:14.560Z,8.93
2019-03-02T21:58:02.214Z,9.05
2019-03-02T22:00:49.948Z,8.91
2019-03-02T22:03:18.404Z,8.90
2019-03-02T22:06:26.724Z,9.07
2019-03-02T22:08:55.138Z,9.01
2019-03-02T22:11:42.790Z,9.00
2019-03-02T22:14:11.195Z,9.12
2019-03-02T22:16:39.602Z,9.10
2019-03-02T22:19:27.133Z,9.10
2019-03-02T22:21:55.531Z,8.96
2019-03-02T22:27:16.879Z,9.08
2019-03-02T22:30:25.264Z,9.06
2019-03-02T22:33:33.591Z,8.97
2019-03-02T22:36:01.989Z,9.01
2019-03-02T22:38:30.397Z,8.94
2019-03-02T22:43:49.253Z,8.84
2019-03-02T22:46:17.652Z,8.91
2019-03-02T22:48:46.063Z,9.01
2019-03-02T22:51:14.472Z,9.05
2019-03-02T22:54:01.996Z,9.19
2019-03-02T22:56:49.505Z,9.20
2019-03-02T22:59:17.907Z,9.15
2019-03-02T23:02:26.269Z,9.16
2019-03-02T23:05:13.923Z,9.22
2019-03-02T23:08:01.591Z,9.17
2019-03-02T23:10:29.990Z,9.23
2019-03-02T23:13:17.888Z,9.19
2019-03-02T23:16:05.423Z,9.36
2019-03-02T23:18:33.828Z,9.35
2019-03-02T23:24:28.168Z,9.30
2019-03-02T23:26:56.529Z,9.40
2019-03-02T23:29:44.184Z,9.46
2019-03-02T23:32:31.697Z,9.68
2019-03-02T23:35:00.163Z,9.61
2019-03-02T23:37:47.819Z,9.41
2019-03-02T23:40:56.136Z,9.54
2019-03-02T23:43:24.539Z,9.63
2019-03-02T23:46:12.191Z,9.52
2019-03-02T23:48:40.583Z,9.53
2019-03-02T23:51:08.993Z,9.50
2019-03-02T23:54:17.303Z,9.59
2019-03-02T23:57:04.811Z,9.52
